Time;durP1;ratioP1;P1;durP2;ratioP2;P2;SDS_P1;SDS_P2;PMS_P1;PMS_P2;Temp;Humidity;BMP_temperature;BMP_pressure;BME280_temperature;BME280_humidity;BME280_pressure;Samples;Min_cycle;Max_cycle;Signal;HPM_P1;HPM_P2
2022/12/05 00:03:56;;;;;;;16.50;10.80;;;22.30;63.00;;;;;;215698;1272;22582;-57
2022/12/05 00:09:05;;;;;;;;;;;22.30;63.60;;;;;;215286;1282;22679;-56
2022/12/05 00:14:10;;;;;;;17.80;11.50;;;22.20;63.90;;;;;;215533;1272;22505;-56
2022/12/05 00:19:15;;;;;;;19.50;11.40;;;22.10;64.40;;;;;;215447;1268;22971;-55
2022/12/05 00:24:22;;;;;;;17.00;11.10;;;22.00;65.20;;;;;;215615;1283;22666;-56
2022/12/05 00:29:30;;;;;;;16.10;10.80;;;22.00;66.30;;;;;;215196;1282;25595;-55
2022/12/05 00:34:37;;;;;;;21.00;11.70;;;22.00;66.10;;;;;;215274;1275;22459;-57
2022/12/05 00:39:43;;;;;;;22.70;12.20;;;21.90;66.40;;;;;;215474;1282;23744;-56
2022/12/05 00:44:50;;;;;;;21.80;12.30;;;21.90;66.20;;;;;;215227;1276;24177;-57
2022/12/05 00:49:53;;;;;;;19.00;11.20;;;21.90;66.30;;;;;;215511;1277;23876;-60
2022/12/05 00:54:59;;;;;;;19.70;12.20;;;21.80;66.10;;;;;;215262;1277;24313;-56
2022/12/05 01:00:06;;;;;;;17.50;10.80;;;21.80;65.90;;;;;;215406;1269;25423;-56
2022/12/05 01:05:10;;;;;;;18.20;11.50;;;21.70;65.70;;;;;;215437;1292;23838;-56
2022/12/05 01:10:14;;;;;;;17.20;11.40;;;21.70;65.70;;;;;;215244;1291;22501;-57
2022/12/05 01:15:17;;;;;;;16.60;11.50;;;21.70;65.40;;;;;;215104;1286;25293;-57
2022/12/05 01:20:23;;;;;;;17.00;11.40;;;21.70;65.30;;;;;;218468;1269;25332;-56
2022/12/05 01:25:39;;;;;;;21.30;12.20;;;21.60;65.10;;;;;;215623;1286;22578;-53
2022/12/05 01:30:46;;;;;;;19.50;12.10;;;21.60;65.40;;;;;;215519;1288;22584;-56
2022/12/05 01:35:51;;;;;;;18.40;11.40;;;21.50;65.10;;;;;;215533;1276;22625;-56
2022/12/05 01:41:03;;;;;;;18.30;11.50;;;21.50;65.00;;;;;;215505;1277;24797;-56
2022/12/05 01:46:07;;;;;;;19.50;12.30;;;21.40;65.10;;;;;;215335;1281;22453;-57
2022/12/05 01:51:13;;;;;;;17.60;11.30;;;21.40;64.80;;;;;;215220;1277;25527;-56
2022/12/05 01:56:19;;;;;;;23.30;12.10;;;21.40;64.80;;;;;;215603;1283;24470;-57
2022/12/05 02:01:22;;;;;;;18.10;11.50;;;21.30;66.70;;;;;;215507;1273;22470;-57
2022/12/05 02:06:28;;;;;;;20.50;11.80;;;21.30;68.00;;;;;;215581;1276;22469;-57
2022/12/05 02:12:11;;;;;;;17.40;11.60;;;21.30;67.50;;;;;;215529;1282;24247;-56
2022/12/05 02:17:52;;;;;;;16.20;11.10;;;21.30;66.60;;;;;;215604;1275;22537;-56
2022/12/05 02:23:21;;;;;;;19.30;11.40;;;21.30;66.70;;;;;;215444;1281;22650;-56
2022/12/05 02:29:00;;;;;;;19.40;11.50;;;21.30;66.40;;;;;;215485;1276;25548;-57
2022/12/05 02:34:29;;;;;;;16.30;10.30;;;21.20;65.80;;;;;;215474;1269;24502;-57
2022/12/05 02:39:36;;;;;;;19.90;11.30;;;21.10;65.60;;;;;;215688;1280;24274;-56
2022/12/05 02:44:48;;;;;;;18.10;11.50;;;21.10;65.60;;;;;;215521;1290;26479;-56
2022/12/05 02:49:53;;;;;;;16.70;11.00;;;21.10;65.50;;;;;;215539;1297;25430;-56
2022/12/05 02:54:58;;;;;;;18.40;10.60;;;21.10;65.30;;;;;;215526;1282;22465;-56
2022/12/05 03:00:03;;;;;;;17.80;10.50;;;21.10;65.70;;;;;;215026;1281;24242;-56
2022/12/05 03:05:46;;;;;;;17.00;11.00;;;21.10;65.50;;;;;;216450;1282;23873;-56
2022/12/05 03:10:52;;;;;;;16.80;10.00;;;21.30;65.50;;;;;;215460;1279;22500;-57
2022/12/05 03:16:01;;;;;;;14.40;9.90;;;21.60;64.70;;;;;;215536;1285;24246;-57
2022/12/05 03:21:17;;;;;;;17.50;10.20;;;21.90;63.50;;;;;;215482;1288;25289;-58
2022/12/05 03:26:52;;;;;;;17.00;10.10;;;22.00;63.10;;;;;;215082;1278;23169;-57
2022/12/05 03:32:06;;;;;;;16.80;10.50;;;22.20;62.80;;;;;;215473;1288;24253;-56
2022/12/05 03:37:19;;;;;;;14.50;10.00;;;22.30;62.50;;;;;;215202;1282;25614;-57
2022/12/05 03:42:30;;;;;;;15.10;9.60;;;22.40;62.10;;;;;;215290;1280;24252;-57
2022/12/05 03:47:49;;;;;;;18.20;11.20;;;22.40;61.90;;;;;;215196;1278;25554;-56
2022/12/05 03:53:01;;;;;;;14.40;9.50;;;22.50;61.50;;;;;;215462;1279;24212;-56
2022/12/05 03:59:03;;;;;;;15.30;9.70;;;22.50;61.40;;;;;;215508;1289;22634;-55
2022/12/05 04:04:12;;;;;;;13.20;9.00;;;22.50;61.30;;;;;;215270;1292;24020;-56
2022/12/05 04:09:27;;;;;;;12.80;9.20;;;22.60;61.00;;;;;;215459;1283;25497;-58
2022/12/05 04:14:36;;;;;;;15.50;10.10;;;22.70;60.70;;;;;;215240;1283;24552;-56
2022/12/05 04:25:32;;;;;;;14.40;9.80;;;22.70;60.80;;;;;;215479;1286;25234;-55
2022/12/05 04:30:43;;;;;;;;;;;22.80;60.20;;;;;;215596;1297;25417;-57
2022/12/05 04:36:05;;;;;;;;;;;22.80;60.10;;;;;;215503;1278;24454;-56
2022/12/05 04:41:19;;;;;;;15.10;9.00;;;22.90;60.00;;;;;;215325;1296;25313;-56
2022/12/05 04:46:25;;;;;;;14.40;9.30;;;22.90;59.90;;;;;;217202;1281;22712;-56
2022/12/05 04:51:33;;;;;;;13.70;9.70;;;22.90;59.80;;;;;;215522;1276;24227;-56
2022/12/05 04:56:44;;;;;;;11.70;8.60;;;23.00;59.70;;;;;;215385;1301;25267;-54
2022/12/05 05:01:54;;;;;;;12.40;9.00;;;23.00;59.50;;;;;;215406;1292;23863;-58
2022/12/05 05:06:58;;;;;;;12.70;8.80;;;23.00;59.30;;;;;;215515;1297;25349;-56
2022/12/05 05:12:03;;;;;;;12.50;8.60;;;23.00;59.30;;;;;;215444;1298;26633;-56
2022/12/05 05:17:07;;;;;;;11.20;8.40;;;23.00;59.40;;;;;;215484;1298;22703;-56
2022/12/05 05:22:11;;;;;;;11.00;8.20;;;22.90;59.70;;;;;;215489;1297;25521;-57
2022/12/05 05:27:15;;;;;;;12.00;8.40;;;22.80;59.90;;;;;;215187;1272;25442;-57
2022/12/05 05:32:19;;;;;;;12.00;8.60;;;22.70;60.10;;;;;;215418;1282;23864;-56
2022/12/05 05:37:24;;;;;;;13.30;9.00;;;22.60;60.20;;;;;;215513;1297;25062;-54
2022/12/05 05:42:27;;;;;;;12.00;9.10;;;22.50;60.30;;;;;;215091;1283;25603;-57
2022/12/05 05:47:35;;;;;;;12.10;8.70;;;22.40;60.30;;;;;;215553;1297;25606;-56
2022/12/05 05:52:40;;;;;;;12.00;8.40;;;22.30;60.30;;;;;;215418;1283;22473;-56
2022/12/05 05:57:45;;;;;;;16.30;9.80;;;22.20;60.80;;;;;;217734;1291;23984;-57
2022/12/05 06:02:53;;;;;;;12.70;9.20;;;22.20;60.70;;;;;;219479;1276;22507;-56
2022/12/05 06:07:58;;;;;;;13.10;9.30;;;22.10;60.90;;;;;;215649;1276;24257;-55
2022/12/05 06:13:08;;;;;;;11.80;8.80;;;22.00;60.80;;;;;;215535;1284;25208;-56
2022/12/05 06:18:17;;;;;;;12.60;8.60;;;22.00;60.90;;;;;;215304;1279;23675;-57
2022/12/05 06:23:42;;;;;;;13.90;9.00;;;21.90;60.90;;;;;;215457;1276;25293;-57
2022/12/05 06:28:52;;;;;;;11.60;8.60;;;21.90;61.00;;;;;;215489;1287;22669;-56
2022/12/05 06:34:06;;;;;;;13.10;9.10;;;21.80;61.00;;;;;;215198;1272;22477;-56
2022/12/05 06:39:28;;;;;;;12.50;8.70;;;21.80;61.00;;;;;;215330;1282;23729;-58
2022/12/05 06:44:52;;;;;;;13.90;9.80;;;21.70;61.10;;;;;;215237;1276;22840;-56
2022/12/05 06:50:05;;;;;;;13.70;8.90;;;21.70;61.30;;;;;;215120;1277;22643;-56
2022/12/05 06:55:11;;;;;;;13.70;9.00;;;21.70;61.30;;;;;;215291;1290;24754;-55
2022/12/05 07:05:43;;;;;;;11.50;8.50;;;21.60;61.40;;;;;;215576;1283;23830;-55
2022/12/05 07:10:52;;;;;;;12.10;8.10;;;21.60;61.70;;;;;;215217;1286;24272;-56
2022/12/05 07:15:57;;;;;;;13.00;9.40;;;21.50;61.60;;;;;;215237;1280;22598;-55
2022/12/05 07:21:07;;;;;;;12.80;8.10;;;21.50;62.30;;;;;;215506;1277;24280;-56
2022/12/05 07:26:22;;;;;;;14.00;8.30;;;21.40;62.20;;;;;;215417;1280;22601;-56
2022/12/05 07:31:28;;;;;;;13.70;8.50;;;21.40;62.60;;;;;;215498;1272;22466;-57
2022/12/05 07:36:32;;;;;;;12.50;7.90;;;21.30;62.90;;;;;;215402;1275;22465;-56
2022/12/05 07:41:36;;;;;;;16.20;8.30;;;21.30;62.50;;;;;;215590;1285;25356;-56
2022/12/05 07:46:42;;;;;;;14.20;8.60;;;21.40;62.80;;;;;;215437;1297;22728;-56
2022/12/05 07:51:46;;;;;;;13.50;8.00;;;21.30;62.20;;;;;;215600;1282;22715;-55
2022/12/05 07:56:50;;;;;;;16.50;8.90;;;21.30;62.40;;;;;;215382;1283;22969;-56
2022/12/05 08:01:54;;;;;;;17.30;8.50;;;21.30;62.30;;;;;;215684;1289;23864;-55
2022/12/05 08:06:58;;;;;;;18.10;8.70;;;21.20;62.40;;;;;;215388;1277;22556;-56
2022/12/05 08:12:07;;;;;;;18.90;8.80;;;21.20;62.30;;;;;;215457;1293;25335;-54
2022/12/05 08:17:11;;;;;;;15.80;9.00;;;21.20;62.30;;;;;;215226;1290;22477;-55
2022/12/05 08:22:19;;;;;;;15.10;8.90;;;21.40;61.60;;;;;;215600;1278;24243;-55
2022/12/05 08:27:26;;;;;;;12.30;7.70;;;21.70;60.60;;;;;;215353;1279;22625;-56
2022/12/05 08:32:30;;;;;;;14.30;7.60;;;21.90;59.90;;;;;;215613;1276;23631;-55
2022/12/05 08:37:35;;;;;;;11.90;8.40;;;22.00;59.50;;;;;;215486;1269;22489;-55
2022/12/05 08:42:40;;;;;;;16.60;8.70;;;22.10;58.90;;;;;;215199;1276;25222;-54
2022/12/05 08:47:43;;;;;;;14.90;8.00;;;22.20;58.40;;;;;;215065;1276;22492;-55
2022/12/05 08:52:48;;;;;;;17.00;8.90;;;22.20;58.30;;;;;;215591;1283;22616;-54
2022/12/05 08:57:51;;;;;;;10.80;8.30;;;22.30;58.20;;;;;;215714;1275;24023;-54
2022/12/05 09:02:57;;;;;;;12.20;7.90;;;22.40;57.90;;;;;;215481;1276;22498;-56
2022/12/05 09:08:02;;;;;;;14.70;8.30;;;22.40;57.80;;;;;;215312;1279;25452;-55
2022/12/05 09:13:07;;;;;;;11.70;7.90;;;22.50;57.50;;;;;;215561;1283;24241;-55
2022/12/05 09:18:11;;;;;;;12.70;8.20;;;22.60;57.40;;;;;;215417;1276;24544;-55
2022/12/05 09:23:15;;;;;;;12.20;8.00;;;22.60;57.10;;;;;;215428;1285;22454;-55
2022/12/05 09:28:19;;;;;;;11.20;7.60;;;22.70;56.90;;;;;;215536;1277;24031;-55
2022/12/05 09:33:23;;;;;;;11.20;7.80;;;22.70;56.70;;;;;;215518;1276;25356;-55
2022/12/05 09:38:27;;;;;;;12.70;7.90;;;22.80;56.40;;;;;;215737;1269;26070;-54
2022/12/05 09:43:55;;;;;;;10.10;7.50;;;22.90;56.40;;;;;;215641;1269;22469;-54
2022/12/05 09:49:02;;;;;;;10.80;8.10;;;22.90;56.30;;;;;;215597;1291;25425;-55
2022/12/05 09:54:10;;;;;;;9.90;7.80;;;22.80;55.90;;;;;;215323;1272;23045;-54
2022/12/05 09:59:15;;;;;;;13.50;8.30;;;22.80;55.80;;;;;;215634;1278;24254;-55
2022/12/05 10:04:43;;;;;;;10.50;7.60;;;22.80;55.90;;;;;;215594;1279;22469;-55
2022/12/05 10:09:54;;;;;;;11.40;7.70;;;22.80;56.10;;;;;;215588;1276;25484;-54
2022/12/05 10:15:17;;;;;;;11.00;7.40;;;22.90;55.70;;;;;;215253;1269;22462;-54
2022/12/05 10:20:33;;;;;;;9.90;7.70;;;22.90;55.60;;;;;;215158;1281;22450;-56
2022/12/05 10:25:38;;;;;;;10.30;7.90;;;22.90;55.60;;;;;;214297;1275;1409657;-56
2022/12/05 10:30:45;;;;;;;9.80;7.60;;;22.90;55.50;;;;;;215074;1293;24387;-55
2022/12/05 10:35:52;;;;;;;11.00;7.50;;;23.00;55.30;;;;;;215542;1276;24028;-55
2022/12/05 10:41:06;;;;;;;11.10;7.70;;;23.00;55.10;;;;;;215415;1283;23904;-55
2022/12/05 10:46:14;;;;;;;11.80;8.00;;;23.10;55.00;;;;;;215261;1275;24246;-56
2022/12/05 10:51:25;;;;;;;10.30;7.40;;;23.10;54.90;;;;;;215322;1276;22458;-54
2022/12/05 10:56:45;;;;;;;10.30;7.40;;;23.10;54.70;;;;;;215090;1275;23843;-54
2022/12/05 11:01:57;;;;;;;9.10;7.10;;;23.10;54.60;;;;;;215136;1292;22495;-54
2022/12/05 11:07:04;;;;;;;10.40;7.10;;;23.00;55.30;;;;;;215294;1275;22473;-56
2022/12/05 11:12:20;;;;;;;10.40;7.60;;;23.00;55.20;;;;;;215471;1276;25518;-55
2022/12/05 11:17:33;;;;;;;10.60;7.60;;;22.90;55.10;;;;;;217872;1278;22517;-56
2022/12/05 11:22:37;;;;;;;11.20;7.80;;;22.80;55.20;;;;;;215505;1280;24272;-54
2022/12/05 11:27:47;;;;;;;11.30;7.80;;;22.70;55.20;;;;;;215503;1276;22516;-56
2022/12/05 11:33:11;;;;;;;9.00;7.30;;;22.60;55.30;;;;;;215709;1269;25536;-54
2022/12/05 11:38:16;;;;;;;9.50;7.20;;;22.50;55.50;;;;;;215580;1281;22467;-55
2022/12/05 11:43:47;;;;;;;9.10;7.00;;;22.40;55.90;;;;;;215676;1283;25189;-55
2022/12/05 11:49:16;;;;;;;9.40;6.90;;;22.40;55.70;;;;;;215562;1284;25367;-55
2022/12/05 11:55:04;;;;;;;9.80;7.20;;;22.20;55.80;;;;;;215623;1276;23869;-55
2022/12/05 12:00:18;;;;;;;10.20;7.60;;;22.20;55.90;;;;;;214639;1277;23829;-54
2022/12/05 12:06:03;;;;;;;10.60;7.60;;;22.10;55.90;;;;;;215651;1292;22581;-57
2022/12/05 12:11:50;;;;;;;9.50;7.40;;;22.00;55.90;;;;;;214626;1287;23337;-56
2022/12/05 12:17:02;;;;;;;10.40;7.50;;;22.00;56.00;;;;;;215191;1283;22700;-55
2022/12/05 12:22:23;;;;;;;10.60;7.50;;;21.90;55.70;;;;;;215603;1297;25412;-55
2022/12/05 12:27:39;;;;;;;11.40;8.10;;;21.90;56.10;;;;;;215713;1276;23843;-59
2022/12/05 12:33:02;;;;;;;10.70;7.90;;;21.80;56.10;;;;;;215287;1275;22588;-55
2022/12/05 12:38:23;;;;;;;10.10;7.50;;;21.80;55.50;;;;;;215529;1269;23774;-57
2022/12/05 12:43:36;;;;;;;11.30;7.30;;;21.70;56.20;;;;;;215395;1269;22504;-56
2022/12/05 12:49:24;;;;;;;10.30;8.30;;;21.70;55.70;;;;;;215404;1298;25326;-55
2022/12/05 12:55:03;;;;;;;12.60;8.00;;;21.70;56.00;;;;;;215567;1288;22467;-55
2022/12/05 13:00:26;;;;;;;10.50;8.00;;;21.60;56.20;;;;;;215415;1276;22474;-56
2022/12/05 13:05:41;;;;;;;11.80;8.00;;;21.60;55.90;;;;;;215482;1283;24001;-55
2022/12/05 13:10:48;;;;;;;10.40;7.70;;;21.60;56.40;;;;;;215193;1283;25232;-56
2022/12/05 13:15:59;;;;;;;10.30;7.90;;;21.60;56.10;;;;;;215508;1291;22591;-56
2022/12/05 13:21:07;;;;;;;11.50;8.20;;;21.50;56.10;;;;;;215941;1276;25377;-55
2022/12/05 13:26:12;;;;;;;8.70;7.70;;;21.50;56.10;;;;;;215415;1275;22499;-56
2022/12/05 13:31:32;;;;;;;9.50;7.30;;;21.40;56.30;;;;;;215641;1279;25533;-55
2022/12/05 13:42:14;;;;;;;13.40;10.20;;;21.40;56.30;;;;;;215374;1281;23730;-55
2022/12/05 13:47:34;;;;;;;12.70;8.50;;;21.30;56.00;;;;;;215540;1291;22618;-55
2022/12/05 13:52:53;;;;;;;11.10;8.70;;;21.40;56.20;;;;;;215377;1283;25263;-55
2022/12/05 13:57:59;;;;;;;11.20;8.70;;;21.70;55.50;;;;;;215670;1294;23842;-53
2022/12/05 14:03:35;;;;;;;12.60;8.70;;;22.00;54.60;;;;;;215685;1276;24311;-54
2022/12/05 14:08:53;;;;;;;10.10;7.70;;;22.20;54.10;;;;;;215065;1290;24249;-56
2022/12/05 14:13:57;;;;;;;10.90;8.40;;;22.30;53.80;;;;;;215649;1291;23837;-52
2022/12/05 14:19:14;;;;;;;10.80;8.70;;;22.40;53.50;;;;;;215523;1295;23879;-53
2022/12/05 14:25:02;;;;;;;11.00;8.20;;;22.50;53.30;;;;;;215534;1275;22476;-54
2022/12/05 14:30:28;;;;;;;10.30;8.30;;;22.50;53.20;;;;;;215649;1297;23875;-54
2022/12/05 14:35:50;;;;;;;13.80;9.10;;;22.60;53.00;;;;;;215381;1291;22591;-56
2022/12/05 14:40:56;;;;;;;12.40;8.90;;;22.60;52.90;;;;;;215168;1289;23916;-56
2022/12/05 14:46:24;;;;;;;13.20;9.90;;;22.60;53.00;;;;;;215172;1286;24038;-55
2022/12/05 14:51:42;;;;;;;13.50;9.20;;;22.50;53.10;;;;;;215530;1283;24264;-51
2022/12/05 14:56:51;;;;;;;14.60;10.20;;;22.50;52.70;;;;;;215342;1291;24080;-55
2022/12/05 15:02:00;;;;;;;15.30;9.40;;;22.60;52.80;;;;;;215495;1275;24926;-55
2022/12/05 15:07:09;;;;;;;16.90;9.20;;;22.70;52.80;;;;;;215588;1269;25440;-54
2022/12/05 15:12:47;;;;;;;16.40;9.60;;;22.70;52.60;;;;;;215174;1285;22486;-54
2022/12/05 15:17:57;;;;;;;14.70;9.80;;;22.80;52.60;;;;;;215583;1279;24257;-56
2022/12/05 15:23:03;;;;;;;16.00;10.50;;;22.80;52.80;;;;;;215658;1276;22463;-53
2022/12/05 15:28:18;;;;;;;13.10;9.60;;;22.90;52.80;;;;;;215568;1279;25309;-54
2022/12/05 15:33:25;;;;;;;17.20;10.30;;;23.00;52.60;;;;;;215220;1285;23050;-56
2022/12/05 15:38:35;;;;;;;15.80;10.20;;;23.00;52.50;;;;;;215815;1272;22525;-53
2022/12/05 15:43:40;;;;;;;17.10;9.30;;;23.10;53.10;;;;;;215555;1292;22830;-55
2022/12/05 15:48:50;;;;;;;16.30;10.00;;;23.20;52.60;;;;;;215430;1282;22459;-55
2022/12/05 15:54:10;;;;;;;15.40;9.60;;;23.20;53.40;;;;;;215409;1269;22537;-56
2022/12/05 15:59:38;;;;;;;20.30;10.70;;;23.10;53.30;;;;;;215409;1276;23999;-54
2022/12/05 16:04:45;;;;;;;21.20;10.40;;;23.00;53.60;;;;;;215194;1268;22447;-58
2022/12/05 16:09:49;;;;;;;14.00;9.80;;;22.90;54.30;;;;;;215350;1275;24262;-58
2022/12/05 16:14:59;;;;;;;17.60;10.70;;;22.80;54.00;;;;;;215132;1276;23167;-57
2022/12/05 16:20:16;;;;;;;17.40;10.30;;;22.70;54.00;;;;;;215380;1281;22568;-58
2022/12/05 16:25:37;;;;;;;20.60;11.00;;;22.60;54.30;;;;;;219406;1274;24337;-56
2022/12/05 16:31:00;;;;;;;17.80;11.00;;;22.70;54.00;;;;;;215350;1269;25642;-57
2022/12/05 16:36:10;;;;;;;27.90;12.60;;;22.60;52.40;;;;;;215518;1272;26522;-57
2022/12/05 16:41:21;;;;;;;20.80;12.70;;;22.40;53.10;;;;;;215103;1275;24274;-56
2022/12/05 16:46:40;;;;;;;19.80;13.10;;;22.30;52.90;;;;;;216212;1279;22489;-58
2022/12/05 16:51:57;;;;;;;19.70;13.40;;;22.20;52.70;;;;;;215505;1272;23051;-57
2022/12/05 16:57:11;;;;;;;17.70;11.90;;;22.10;52.80;;;;;;215497;1269;22479;-58
2022/12/05 17:02:17;;;;;;;20.20;13.10;;;22.00;52.80;;;;;;215255;1286;22444;-57
2022/12/05 17:07:21;;;;;;;18.70;13.10;;;22.00;52.90;;;;;;215556;1283;25275;-56
2022/12/05 17:12:29;;;;;;;20.20;13.30;;;21.90;53.00;;;;;;215561;1276;23830;-56
2022/12/05 17:17:35;;;;;;;18.50;12.90;;;21.80;52.40;;;;;;215285;1279;25455;-58
2022/12/05 17:22:44;;;;;;;20.20;13.60;;;21.80;52.90;;;;;;215512;1276;25465;-57
2022/12/05 17:27:48;;;;;;;19.60;12.70;;;21.70;53.30;;;;;;215624;1276;25547;-57
2022/12/05 17:32:52;;;;;;;20.10;13.70;;;21.70;53.00;;;;;;215464;1283;23837;-56
2022/12/05 17:37:56;;;;;;;20.70;14.60;;;21.60;53.00;;;;;;215639;1283;22966;-56
2022/12/05 17:43:01;;;;;;;19.00;14.40;;;21.60;52.90;;;;;;215456;1284;25256;-57
2022/12/05 17:48:14;;;;;;;19.10;14.20;;;21.50;53.00;;;;;;215173;1295;24222;-57
2022/12/05 17:53:20;;;;;;;20.00;14.50;;;21.50;53.00;;;;;;215308;1285;25050;-59
2022/12/05 17:58:23;;;;;;;20.20;15.10;;;21.40;52.70;;;;;;215549;1276;24234;-58
2022/12/05 18:03:27;;;;;;;21.80;14.90;;;21.50;52.50;;;;;;215552;1281;22642;-57
2022/12/05 18:08:33;;;;;;;19.70;14.10;;;21.90;52.20;;;;;;215281;1274;23992;-58
2022/12/05 18:13:39;;;;;;;21.20;14.80;;;22.20;51.00;;;;;;215644;1288;22461;-59
2022/12/05 18:18:43;;;;;;;19.80;14.50;;;22.30;50.50;;;;;;215701;1286;22473;-59
2022/12/05 18:23:50;;;;;;;20.00;14.90;;;22.40;50.30;;;;;;215512;1281;24234;-55
2022/12/05 18:28:57;;;;;;;20.30;15.40;;;22.50;49.90;;;;;;215578;1279;24365;-58
2022/12/05 18:34:08;;;;;;;22.10;16.70;;;22.60;49.80;;;;;;215320;1294;25547;-57
2022/12/05 18:39:15;;;;;;;22.90;15.80;;;22.60;49.60;;;;;;215620;1283;24164;-58
2022/12/05 18:44:20;;;;;;;23.90;18.30;;;22.70;49.60;;;;;;215392;1279;22492;-57
2022/12/05 18:49:32;;;;;;;23.40;17.50;;;22.80;49.30;;;;;;215490;1283;25367;-58
2022/12/05 18:54:50;;;;;;;24.30;18.90;;;22.70;49.30;;;;;;215297;1280;22557;-59
2022/12/05 19:00:18;;;;;;;26.30;19.10;;;22.80;49.30;;;;;;215310;1285;22529;-58
2022/12/05 19:05:34;;;;;;;28.50;21.00;;;22.90;49.20;;;;;;215263;1278;22500;-58
2022/12/05 19:10:46;;;;;;;27.10;20.30;;;22.90;49.50;;;;;;215526;1297;25419;-57
2022/12/05 19:16:05;;;;;;;26.20;19.40;;;22.90;49.00;;;;;;215476;1275;22476;-58
2022/12/05 19:21:42;;;;;;;28.20;20.50;;;23.00;48.90;;;;;;215315;1282;25423;-57
2022/12/05 19:27:18;;;;;;;;;;;;;;;;;;;;;
2022/12/05 19:32:32;;;;;;;27.70;20.60;;;23.10;48.70;;;;;;215509;1280;25389;-57
2022/12/05 19:37:45;;;;;;;27.70;20.80;;;23.10;48.60;;;;;;215615;1276;24212;-57
2022/12/05 19:42:50;;;;;;;29.60;20.70;;;23.10;48.40;;;;;;215217;1283;25280;-55
2022/12/05 19:48:06;;;;;;;28.80;21.50;;;23.20;48.40;;;;;;215565;1272;22534;-58
2022/12/05 19:53:12;;;;;;;27.20;20.90;;;23.10;48.30;;;;;;215640;1282;23842;-58
2022/12/05 19:58:20;;;;;;;26.00;19.90;;;23.20;48.30;;;;;;215429;1274;22480;-57
2022/12/05 20:03:28;;;;;;;29.50;21.00;;;23.30;48.20;;;;;;215279;1283;24672;-59
2022/12/05 20:08:51;;;;;;;30.50;21.20;;;23.30;48.20;;;;;;215496;1283;25400;-58
2022/12/05 20:13:59;;;;;;;29.90;21.80;;;23.20;48.20;;;;;;215461;1278;22514;-56
2022/12/05 20:19:04;;;;;;;29.20;21.90;;;23.20;48.60;;;;;;215666;1275;24365;-55
2022/12/05 20:24:15;;;;;;;29.00;22.40;;;23.10;48.50;;;;;;215264;1283;22506;-56
2022/12/05 20:29:20;;;;;;;29.30;21.90;;;22.90;48.70;;;;;;215274;1283;24227;-57
2022/12/05 20:34:26;;;;;;;32.10;23.50;;;22.70;48.70;;;;;;215520;1283;22455;-57
2022/12/05 20:39:35;;;;;;;36.20;23.50;;;22.70;48.60;;;;;;215570;1285;26579;-57
2022/12/05 20:44:41;;;;;;;34.10;24.00;;;22.70;49.40;;;;;;215808;1283;22803;-56
2022/12/05 20:49:45;;;;;;;39.30;24.00;;;22.60;49.10;;;;;;215575;1283;22481;-54
2022/12/05 20:54:51;;;;;;;34.60;23.70;;;22.60;50.10;;;;;;215431;1292;24745;-54
2022/12/05 20:59:56;;;;;;;38.40;22.40;;;22.50;50.70;;;;;;215523;1297;22506;-56
2022/12/05 21:05:17;;;;;;;36.20;22.70;;;22.40;51.10;;;;;;215298;1269;23074;-54
2022/12/05 21:10:30;;;;;;;32.00;21.50;;;22.50;51.00;;;;;;215223;1280;24259;-54
2022/12/05 21:15:42;;;;;;;44.70;22.10;;;22.50;51.10;;;;;;215098;1275;22924;-55
2022/12/05 21:21:06;;;;;;;36.60;23.30;;;22.40;51.80;;;;;;215197;1283;25650;-57
2022/12/05 21:26:17;;;;;;;35.00;22.60;;;22.30;52.30;;;;;;215128;1275;24227;-55
2022/12/05 21:31:44;;;;;;;35.10;24.20;;;22.30;52.80;;;;;;214956;1276;22957;-55
2022/12/05 21:37:12;;;;;;;43.90;23.00;;;22.30;53.40;;;;;;214925;1288;22650;-57
2022/12/05 21:42:40;;;;;;;35.30;22.40;;;22.30;53.30;;;;;;215151;1285;23196;-55
2022/12/05 21:48:36;;;;;;;33.60;22.40;;;22.30;53.70;;;;;;215054;1289;25210;-55
2022/12/05 21:53:52;;;;;;;31.50;21.70;;;22.30;54.10;;;;;;214869;1282;26761;-55
2022/12/05 21:59:06;;;;;;;30.00;20.10;;;22.30;54.30;;;;;;214908;1287;25755;-54
2022/12/05 22:04:23;;;;;;;28.80;19.30;;;22.40;54.10;;;;;;215232;1281;23097;-54
2022/12/05 22:09:42;;;;;;;30.20;19.30;;;22.40;54.20;;;;;;215115;1284;24243;-54
2022/12/05 22:14:53;;;;;;;29.60;19.50;;;22.40;54.30;;;;;;215149;1286;24227;-55
2022/12/05 22:20:09;;;;;;;27.20;18.40;;;22.30;54.40;;;;;;215412;1283;22454;-55
2022/12/05 22:25:19;;;;;;;28.90;18.50;;;22.30;55.10;;;;;;215285;1282;377906;-55
2022/12/05 22:30:26;;;;;;;27.40;19.20;;;22.20;54.60;;;;;;215543;1289;25556;-54
2022/12/05 22:35:31;;;;;;;28.10;19.40;;;22.20;54.80;;;;;;215586;1289;22637;-55
2022/12/05 22:40:36;;;;;;;28.80;18.00;;;22.10;54.80;;;;;;215707;1282;24428;-56
2022/12/05 22:45:50;;;;;;;25.50;18.00;;;22.10;55.00;;;;;;215495;1283;24388;-57
2022/12/05 22:51:06;;;;;;;28.70;18.20;;;22.00;55.10;;;;;;215556;1280;22466;-58
2022/12/05 22:56:20;;;;;;;27.80;18.20;;;22.00;55.60;;;;;;215653;1277;25543;-57
2022/12/05 23:01:30;;;;;;;23.70;16.60;;;22.00;55.30;;;;;;215279;1278;22496;-57
2022/12/05 23:06:38;;;;;;;25.80;17.20;;;21.90;55.40;;;;;;219791;1284;24997;-54
2022/12/05 23:11:49;;;;;;;25.90;17.60;;;21.90;55.50;;;;;;215415;1276;25506;-54
2022/12/05 23:16:59;;;;;;;28.90;18.30;;;21.90;55.60;;;;;;215510;1277;22469;-52
2022/12/05 23:22:16;;;;;;;28.70;19.60;;;21.80;56.10;;;;;;215569;1290;22584;-52
2022/12/05 23:27:29;;;;;;;33.00;19.30;;;21.80;56.40;;;;;;215269;1280;24011;-52
2022/12/05 23:32:36;;;;;;;30.80;21.00;;;21.80;56.50;;;;;;215249;1280;22574;-54
2022/12/05 23:37:43;;;;;;;30.10;19.60;;;21.70;56.50;;;;;;215539;1280;24243;-52
2022/12/05 23:42:47;;;;;;;29.40;19.70;;;21.60;56.60;;;;;;215487;1283;24002;-51
2022/12/05 23:47:51;;;;;;;28.40;19.80;;;21.50;56.50;;;;;;215501;1283;25369;-50
2022/12/05 23:52:55;;;;;;;26.80;18.80;;;21.40;56.50;;;;;;215450;1298;24018;-51
2022/12/05 23:58:00;;;;;;;26.20;19.30;;;21.40;56.50;;;;;;215538;1280;25272;-51
